createdAt,value
2023-04-16T00:01:41.042Z,8.60
2023-04-16T00:04:09.034Z,8.10
2023-04-16T00:06:37.339Z,11.80
2023-04-16T00:09:05.436Z,9.10
2023-04-16T00:11:33.283Z,14.50
2023-04-16T00:14:01.382Z,12.60
2023-04-16T00:16:29.414Z,12.40
2023-04-16T00:18:57.307Z,10.80
2023-04-16T00:21:25.287Z,9.10
2023-04-16T00:23:53.841Z,9.60
2023-04-16T00:26:21.726Z,10.20
2023-04-16T00:28:49.579Z,10.90
2023-04-16T00:31:17.572Z,10.90
2023-04-16T00:33:45.473Z,10.50
2023-04-16T00:36:13.359Z,10.40
2023-04-16T00:38:41.402Z,8.80
2023-04-16T00:41:09.339Z,9.40
2023-04-16T00:43:37.593Z,8.70
2023-04-16T00:46:08.849Z,8.80
2023-04-16T00:48:38.755Z,8.00
2023-04-16T00:51:08.773Z,7.90
2023-04-16T00:53:36.683Z,7.20
2023-04-16T00:56:07.433Z,7.00
2023-04-16T00:58:35.899Z,7.00
2023-04-16T01:01:04.012Z,7.40
2023-04-16T01:03:39.789Z,6.60
2023-04-16T01:06:07.980Z,6.60
2023-04-16T01:08:35.967Z,6.70
2023-04-16T01:11:04.244Z,6.80
2023-04-16T01:13:33.841Z,6.30
2023-04-16T01:16:01.850Z,6.50
2023-04-16T01:18:29.746Z,7.20
2023-04-16T01:20:57.680Z,6.20
2023-04-16T01:23:26.032Z,6.60
2023-04-16T01:25:54.267Z,6.20
2023-04-16T01:28:23.069Z,6.40
2023-04-16T01:30:51.125Z,5.60
2023-04-16T01:33:41.696Z,5.60
2023-04-16T01:36:11.085Z,5.80
2023-04-16T01:38:39.150Z,6.30
2023-04-16T01:41:07.459Z,6.90
2023-04-16T01:43:38.425Z,8.70
2023-04-16T01:46:18.333Z,12.60
2023-04-16T01:48:47.334Z,13.50
2023-04-16T01:51:15.364Z,16.40
2023-04-16T01:53:43.256Z,17.20
2023-04-16T01:56:11.626Z,19.80
2023-04-16T01:58:39.974Z,21.70
2023-04-16T02:01:09.183Z,14.10
2023-04-16T02:03:39.112Z,13.20
2023-04-16T02:06:07.357Z,12.80
2023-04-16T02:08:37.094Z,12.90
2023-04-16T02:11:05.149Z,10.50
2023-04-16T02:13:33.375Z,11.10
2023-04-16T02:16:01.319Z,11.80
2023-04-16T02:18:46.165Z,10.50
2023-04-16T02:21:15.519Z,9.90
2023-04-16T02:23:47.597Z,7.90
2023-04-16T02:26:15.530Z,8.00
2023-04-16T02:28:44.181Z,8.80
2023-04-16T02:31:12.843Z,8.40
2023-04-16T02:33:44.562Z,8.80
2023-04-16T02:36:13.111Z,8.60
2023-04-16T02:38:41.263Z,10.00
2023-04-16T02:41:09.520Z,9.60
2023-04-16T02:43:37.595Z,11.10
2023-04-16T02:46:06.032Z,11.10
2023-04-16T02:48:34.051Z,10.20
2023-04-16T02:51:02.059Z,11.00
2023-04-16T02:53:29.892Z,10.40
2023-04-16T02:55:57.931Z,10.00
2023-04-16T02:58:26.741Z,10.10
2023-04-16T03:00:55.325Z,9.60
2023-04-16T03:03:23.785Z,8.70
2023-04-16T03:05:52.241Z,9.30
2023-04-16T03:08:20.226Z,9.90
2023-04-16T03:10:48.168Z,8.50
2023-04-16T03:13:16.366Z,8.50
2023-04-16T03:15:50.069Z,8.70
2023-04-16T03:18:18.356Z,8.80
2023-04-16T03:20:46.235Z,7.80
2023-04-16T03:23:14.262Z,7.50
2023-04-16T03:25:43.810Z,7.80
2023-04-16T03:28:12.108Z,7.90
2023-04-16T03:30:40.209Z,8.30
2023-04-16T03:33:09.068Z,11.20
2023-04-16T03:35:37.051Z,12.70
2023-04-16T03:38:05.002Z,12.10
2023-04-16T03:40:32.979Z,10.90
2023-04-16T03:43:01.121Z,11.00
2023-04-16T03:45:29.625Z,10.50
2023-04-16T03:47:58.121Z,10.10
2023-04-16T03:50:26.905Z,9.90
2023-04-16T03:52:54.926Z,10.20
2023-04-16T03:55:23.066Z,10.00
2023-04-16T03:57:51.063Z,10.00
2023-04-16T04:00:19.120Z,10.70
2023-04-16T04:02:58.552Z,10.40
2023-04-16T04:05:26.928Z,7.70
2023-04-16T04:07:54.847Z,10.10
2023-04-16T04:10:23.264Z,9.60
2023-04-16T04:12:51.622Z,8.60
2023-04-16T04:15:19.602Z,7.90
2023-04-16T04:17:48.514Z,8.70
2023-04-16T04:20:16.854Z,9.50
2023-04-16T04:22:46.090Z,9.70
2023-04-16T04:25:14.343Z,8.80
2023-04-16T04:27:43.125Z,10.30
2023-04-16T04:30:11.684Z,10.20
2023-04-16T04:32:40.049Z,10.50
2023-04-16T04:35:08.386Z,5.90
2023-04-16T04:37:37.040Z,5.40
2023-04-16T04:42:40.139Z,6.60
2023-04-16T04:45:09.287Z,5.80
2023-04-16T04:47:37.435Z,5.70
2023-04-16T04:50:06.598Z,5.80
2023-04-16T04:52:35.084Z,5.30
2023-04-16T04:55:03.843Z,5.10
2023-04-16T04:57:32.016Z,4.90
2023-04-16T04:59:59.975Z,4.50
2023-04-16T05:02:28.774Z,5.10
2023-04-16T05:04:56.796Z,4.70
2023-04-16T05:07:24.857Z,4.00
2023-04-16T05:09:52.754Z,4.10
2023-04-16T05:12:20.882Z,4.60
2023-04-16T05:14:48.777Z,4.40
2023-04-16T05:17:16.699Z,4.40
2023-04-16T05:19:44.609Z,4.40
2023-04-16T05:22:12.814Z,4.90
2023-04-16T05:24:41.344Z,4.40
2023-04-16T05:27:09.697Z,3.80
2023-04-16T05:29:37.580Z,6.00
2023-04-16T05:32:05.830Z,5.70
2023-04-16T05:34:33.799Z,7.10
2023-04-16T05:37:01.705Z,7.70
2023-04-16T05:39:29.729Z,9.10
2023-04-16T05:41:57.549Z,8.30
2023-04-16T05:44:26.131Z,8.60
2023-04-16T05:46:54.107Z,9.20
2023-04-16T05:49:22.398Z,8.90
2023-04-16T05:51:51.056Z,8.20
2023-04-16T05:54:19.264Z,8.70
2023-04-16T05:56:47.293Z,8.50
2023-04-16T05:59:15.392Z,8.20
2023-04-16T06:01:43.276Z,7.50
2023-04-16T06:04:11.425Z,7.80
2023-04-16T06:06:40.418Z,7.30
2023-04-16T06:09:08.590Z,7.40
2023-04-16T06:11:36.839Z,7.30
2023-04-16T06:14:04.852Z,8.00
2023-04-16T06:16:32.906Z,7.50
2023-04-16T06:19:00.963Z,7.50
2023-04-16T06:21:29.979Z,7.70
2023-04-16T06:23:57.969Z,7.70
2023-04-16T06:26:26.032Z,7.80
2023-04-16T06:28:53.945Z,8.20
2023-04-16T06:31:22.024Z,8.80
2023-04-16T06:33:50.258Z,8.00
2023-04-16T06:36:18.359Z,7.90
2023-04-16T06:38:46.720Z,7.80
2023-04-16T06:41:15.099Z,7.40
2023-04-16T06:43:42.971Z,7.80
2023-04-16T06:46:11.568Z,8.00
2023-04-16T06:48:39.510Z,7.30
2023-04-16T06:51:07.537Z,7.90
2023-04-16T06:53:37.776Z,6.80
2023-04-16T06:56:06.421Z,6.50
2023-04-16T06:58:34.372Z,6.60
2023-04-16T07:01:02.939Z,7.20
2023-04-16T07:03:31.372Z,6.80
2023-04-16T07:05:59.618Z,7.00
2023-04-16T07:08:27.601Z,5.90
2023-04-16T07:10:55.956Z,6.90
2023-04-16T07:13:24.486Z,6.40
2023-04-16T07:15:52.380Z,7.20
2023-04-16T07:18:20.850Z,5.80
2023-04-16T07:20:49.402Z,5.80
2023-04-16T07:23:17.612Z,5.20
2023-04-16T07:25:46.011Z,6.00
2023-04-16T07:28:16.799Z,5.00
2023-04-16T07:30:45.603Z,5.10
2023-04-16T07:33:13.694Z,5.90
2023-04-16T07:35:41.712Z,5.30
2023-04-16T07:38:09.703Z,5.30
2023-04-16T07:40:37.752Z,5.10
2023-04-16T07:43:05.959Z,4.20
2023-04-16T07:45:34.079Z,3.60
2023-04-16T07:48:02.054Z,3.80
2023-04-16T07:50:30.124Z,3.60
2023-04-16T07:52:58.064Z,3.80
2023-04-16T07:55:25.874Z,3.40
2023-04-16T07:57:54.063Z,3.10
2023-04-16T08:00:21.873Z,3.50
2023-04-16T08:02:49.974Z,4.00
2023-04-16T08:05:18.348Z,3.80
2023-04-16T08:07:46.206Z,3.80
2023-04-16T08:10:14.245Z,4.30
2023-04-16T08:12:42.375Z,3.80
2023-04-16T08:15:10.508Z,3.80
2023-04-16T08:17:38.945Z,3.30
2023-04-16T08:20:07.772Z,3.90
2023-04-16T08:22:35.924Z,3.50
2023-04-16T08:25:04.659Z,3.60
2023-04-16T08:27:32.569Z,4.10
2023-04-16T08:30:00.470Z,4.10
2023-04-16T08:32:28.541Z,2.30
2023-04-16T08:34:57.515Z,2.40
2023-04-16T08:37:26.432Z,3.00
2023-04-16T08:39:54.550Z,3.40
2023-04-16T08:42:32.230Z,3.40
2023-04-16T08:45:11.370Z,3.20
2023-04-16T08:47:41.089Z,3.00
2023-04-16T08:50:12.338Z,3.00
2023-04-16T08:52:49.490Z,3.20
2023-04-16T08:55:19.912Z,2.70
2023-04-16T08:57:53.665Z,2.80
2023-04-16T09:00:22.112Z,2.50
2023-04-16T09:02:51.678Z,2.80
2023-04-16T09:05:22.991Z,2.80
2023-04-16T09:07:52.776Z,3.00
2023-04-16T09:10:21.341Z,2.70
2023-04-16T09:12:49.804Z,2.90
2023-04-16T09:15:20.753Z,2.70
2023-04-16T09:17:48.946Z,2.90
2023-04-16T09:20:17.092Z,2.60
2023-04-16T09:22:46.623Z,2.50
2023-04-16T09:25:15.083Z,3.40
2023-04-16T09:27:44.005Z,3.00
2023-04-16T09:30:27.291Z,2.80
2023-04-16T09:33:16.893Z,2.90
2023-04-16T09:35:47.662Z,2.90
2023-04-16T09:38:16.035Z,2.90
2023-04-16T09:40:44.251Z,2.90
2023-04-16T09:43:14.249Z,3.40
2023-04-16T09:45:51.015Z,3.20
2023-04-16T09:48:32.905Z,3.10
2023-04-16T09:51:01.380Z,2.40
2023-04-16T09:53:31.974Z,2.60
2023-04-16T09:56:01.758Z,2.50
2023-04-16T09:58:29.886Z,2.60
2023-04-16T10:01:02.553Z,2.70
2023-04-16T10:03:32.959Z,2.70
2023-04-16T10:06:07.317Z,2.50
2023-04-16T10:08:36.344Z,2.70
2023-04-16T10:11:04.661Z,2.60
2023-04-16T10:13:32.719Z,2.60
2023-04-16T10:16:00.790Z,2.80
2023-04-16T10:18:29.670Z,2.50
2023-04-16T10:20:57.810Z,2.70
2023-04-16T10:23:26.668Z,2.80
2023-04-16T10:25:57.394Z,2.80
2023-04-16T10:28:26.030Z,2.20
2023-04-16T10:30:56.427Z,2.60
2023-04-16T10:33:30.448Z,2.10
2023-04-16T10:36:12.756Z,1.90
2023-04-16T10:38:46.027Z,2.40
2023-04-16T10:41:14.265Z,2.40
2023-04-16T10:43:47.494Z,2.70
2023-04-16T10:46:24.549Z,2.20
2023-04-16T10:48:57.127Z,1.90
2023-04-16T10:51:29.487Z,2.40
2023-04-16T10:54:11.347Z,2.20
2023-04-16T10:56:39.283Z,2.00
2023-04-16T10:59:10.456Z,1.90
2023-04-16T11:01:46.778Z,2.40
2023-04-16T11:04:20.995Z,2.00
2023-04-16T11:07:14.089Z,1.90
2023-04-16T11:09:48.219Z,2.20
2023-04-16T11:12:27.891Z,2.20
2023-04-16T11:15:10.437Z,2.10
2023-04-16T11:17:43.476Z,2.10
2023-04-16T11:20:26.223Z,2.60
2023-04-16T11:22:56.245Z,2.20
2023-04-16T11:25:26.223Z,1.90
2023-04-16T11:27:54.933Z,1.90
2023-04-16T11:30:31.693Z,1.90
2023-04-16T11:33:02.245Z,2.20
2023-04-16T11:35:30.346Z,1.80
2023-04-16T11:37:58.795Z,2.00
2023-04-16T11:40:31.562Z,2.30
2023-04-16T11:43:18.004Z,1.80
2023-04-16T11:46:10.293Z,2.10
2023-04-16T11:48:52.904Z,2.00
2023-04-16T11:51:23.320Z,2.30
2023-04-16T11:53:53.436Z,2.40
2023-04-16T11:56:33.383Z,1.70
2023-04-16T11:59:08.820Z,2.30
2023-04-16T12:01:38.483Z,2.10
2023-04-16T12:04:07.468Z,1.80
2023-04-16T12:06:36.304Z,2.00
2023-04-16T12:09:27.459Z,1.60
2023-04-16T12:11:55.556Z,1.90
2023-04-16T12:14:24.000Z,1.50
2023-04-16T12:16:51.879Z,2.00
2023-04-16T12:19:19.933Z,1.90
2023-04-16T12:21:50.143Z,1.80
2023-04-16T12:24:24.276Z,2.00
2023-04-16T12:26:57.709Z,1.70
2023-04-16T12:29:28.161Z,1.70
2023-04-16T12:31:56.334Z,1.70
2023-04-16T12:34:29.003Z,1.80
2023-04-16T12:37:12.986Z,1.80
2023-04-16T12:39:41.483Z,1.90
2023-04-16T12:42:11.566Z,1.60
2023-04-16T12:44:39.558Z,1.60
2023-04-16T12:47:07.612Z,1.70
2023-04-16T12:49:37.078Z,1.70
2023-04-16T12:52:06.067Z,1.80
2023-04-16T12:54:34.243Z,2.00
2023-04-16T12:57:02.269Z,1.80
2023-04-16T12:59:30.147Z,1.80
2023-04-16T13:01:58.255Z,1.70
2023-04-16T13:04:26.902Z,1.50
2023-04-16T13:06:55.166Z,1.60
2023-04-16T13:09:23.415Z,1.60
2023-04-16T13:11:51.628Z,1.80
2023-04-16T13:14:21.182Z,1.90
2023-04-16T13:16:49.216Z,1.80
2023-04-16T13:19:19.202Z,1.60
2023-04-16T13:21:47.177Z,2.00
2023-04-16T13:24:15.085Z,1.70
2023-04-16T13:26:43.633Z,1.80
2023-04-16T13:29:11.911Z,1.70
2023-04-16T13:31:40.606Z,1.60
2023-04-16T13:34:08.529Z,2.00
2023-04-16T13:36:36.466Z,1.80
2023-04-16T13:39:05.399Z,1.80
2023-04-16T13:41:33.278Z,2.00
2023-04-16T13:44:01.174Z,2.10
2023-04-16T13:46:29.554Z,2.10
2023-04-16T13:48:57.823Z,1.90
2023-04-16T13:51:27.593Z,1.90
2023-04-16T13:53:56.422Z,1.90
2023-04-16T13:56:25.257Z,1.90
2023-04-16T13:58:53.481Z,1.90
2023-04-16T14:01:21.932Z,1.70
2023-04-16T14:03:50.505Z,2.00
2023-04-16T14:06:18.697Z,2.10
2023-04-16T14:08:46.662Z,2.30
2023-04-16T14:11:14.784Z,2.40
2023-04-16T14:13:42.868Z,2.20
2023-04-16T14:16:11.028Z,2.20
2023-04-16T14:18:42.442Z,2.10
2023-04-16T14:21:10.565Z,2.20
2023-04-16T14:23:38.530Z,2.50
2023-04-16T14:26:06.466Z,3.30
2023-04-16T14:28:35.693Z,2.30
2023-04-16T14:31:03.612Z,1.70
2023-04-16T14:33:32.483Z,1.60
2023-04-16T14:36:02.680Z,1.80
2023-04-16T14:38:32.178Z,1.80
2023-04-16T14:41:00.664Z,1.60
2023-04-16T14:43:28.734Z,1.70
2023-04-16T14:45:58.824Z,1.60
2023-04-16T14:48:27.045Z,1.70
2023-04-16T14:50:55.073Z,1.80
2023-04-16T14:53:24.837Z,1.80
2023-04-16T14:55:53.554Z,1.70
2023-04-16T14:58:22.141Z,1.90
2023-04-16T15:00:50.277Z,1.60
2023-04-16T15:03:18.333Z,2.00
2023-04-16T15:05:50.916Z,1.60
2023-04-16T15:08:18.847Z,2.10
2023-04-16T15:10:46.836Z,1.80
2023-04-16T15:13:14.844Z,2.10
2023-04-16T15:15:43.557Z,1.60
2023-04-16T15:18:11.709Z,1.60
2023-04-16T15:20:40.414Z,2.20
2023-04-16T15:23:08.290Z,1.80
2023-04-16T15:25:36.254Z,1.80
2023-04-16T15:28:04.282Z,1.50
2023-04-16T15:30:32.183Z,1.40
2023-04-16T15:33:00.127Z,1.40
2023-04-16T15:35:28.086Z,1.30
2023-04-16T15:37:55.993Z,1.40
2023-04-16T15:40:25.400Z,1.30
2023-04-16T15:42:56.223Z,1.90
2023-04-16T15:45:24.104Z,2.00
2023-04-16T15:47:52.311Z,1.70
2023-04-16T15:50:20.563Z,1.70
2023-04-16T15:52:49.423Z,1.70
2023-04-16T15:55:18.554Z,1.60
2023-04-16T15:57:46.561Z,1.60
2023-04-16T16:00:17.331Z,1.90
2023-04-16T16:02:47.207Z,1.70
2023-04-16T16:05:16.608Z,1.90
2023-04-16T16:07:44.709Z,1.90
2023-04-16T16:10:13.494Z,2.00
2023-04-16T16:12:41.655Z,2.00
2023-04-16T16:15:11.256Z,2.10
2023-04-16T16:17:40.743Z,2.00
2023-04-16T16:20:10.599Z,1.80
2023-04-16T16:22:39.195Z,2.40
2023-04-16T16:25:07.423Z,2.10
2023-04-16T16:27:36.560Z,2.10
2023-04-16T16:30:07.408Z,2.70
2023-04-16T16:32:36.044Z,2.20
2023-04-16T16:35:04.516Z,2.60
2023-04-16T16:37:32.651Z,2.80
2023-04-16T16:40:00.693Z,2.30
2023-04-16T16:42:28.770Z,2.50
2023-04-16T16:44:57.545Z,1.70
2023-04-16T16:47:27.093Z,2.70
2023-04-16T16:49:55.215Z,2.40
2023-04-16T16:52:24.374Z,2.40
2023-04-16T16:54:56.932Z,2.50
2023-04-16T16:57:25.124Z,2.90
2023-04-16T16:59:54.595Z,2.70
2023-04-16T17:02:23.363Z,3.00
2023-04-16T17:04:52.847Z,2.80
2023-04-16T17:07:21.098Z,3.00
2023-04-16T17:09:48.991Z,2.70
2023-04-16T17:12:16.934Z,2.50
2023-04-16T17:14:44.968Z,2.40
2023-04-16T17:17:12.866Z,3.00
2023-04-16T17:19:40.844Z,2.90
2023-04-16T17:22:08.775Z,3.20
2023-04-16T17:24:36.677Z,3.00
2023-04-16T17:27:04.647Z,4.00
2023-04-16T17:29:32.670Z,3.40
2023-04-16T17:32:01.058Z,3.60
2023-04-16T17:34:29.100Z,3.90
2023-04-16T17:36:56.953Z,3.00
2023-04-16T17:39:25.074Z,3.60
2023-04-16T17:41:54.914Z,2.60
2023-04-16T17:44:25.730Z,3.20
2023-04-16T17:46:53.682Z,3.00
2023-04-16T17:49:21.760Z,2.50
2023-04-16T17:51:49.740Z,2.70
2023-04-16T17:54:17.603Z,2.20
2023-04-16T17:56:46.362Z,2.10
2023-04-16T17:59:14.306Z,2.40
2023-04-16T18:01:42.400Z,2.60
2023-04-16T18:04:11.107Z,3.00
2023-04-16T18:06:39.581Z,2.50
2023-04-16T18:09:07.524Z,2.10
2023-04-16T18:11:35.988Z,2.60
2023-04-16T18:14:04.253Z,2.30
2023-04-16T18:16:32.372Z,2.80
2023-04-16T18:19:00.264Z,2.80
2023-04-16T18:21:29.805Z,2.20
2023-04-16T18:23:58.129Z,2.30
2023-04-16T18:26:26.088Z,2.60
2023-04-16T18:28:57.521Z,2.20
2023-04-16T18:31:25.868Z,3.40
2023-04-16T18:33:57.867Z,3.20
2023-04-16T18:36:27.572Z,2.60
2023-04-16T18:39:02.254Z,2.60
2023-04-16T18:41:31.456Z,2.00
2023-04-16T18:43:59.432Z,2.00
2023-04-16T18:46:27.816Z,2.00
2023-04-16T18:48:55.950Z,1.80
2023-04-16T18:51:24.110Z,1.70
2023-04-16T18:53:52.068Z,1.70
2023-04-16T18:56:20.145Z,2.00
2023-04-16T18:58:48.126Z,1.60
2023-04-16T19:01:16.756Z,2.00
2023-04-16T19:03:45.614Z,1.70
2023-04-16T19:06:13.643Z,1.60
2023-04-16T19:08:41.637Z,1.40
2023-04-16T19:11:09.595Z,1.70
2023-04-16T19:13:38.870Z,1.80
2023-04-16T19:16:11.586Z,1.80
2023-04-16T19:18:39.996Z,2.00
2023-04-16T19:21:10.150Z,1.80
2023-04-16T19:23:38.331Z,1.80
2023-04-16T19:26:06.521Z,1.70
2023-04-16T19:28:34.542Z,1.70
2023-04-16T19:31:02.626Z,1.80
2023-04-16T19:33:31.478Z,1.70
2023-04-16T19:36:00.419Z,1.70
2023-04-16T19:38:29.093Z,1.50
2023-04-16T19:40:56.984Z,1.60
2023-04-16T19:43:24.968Z,1.40
2023-04-16T19:45:54.289Z,1.80
2023-04-16T19:48:22.481Z,1.70
2023-04-16T19:50:50.553Z,1.90
2023-04-16T19:53:18.507Z,2.20
2023-04-16T19:55:46.977Z,1.60
2023-04-16T19:58:15.185Z,1.60
2023-04-16T20:00:43.587Z,1.40
2023-04-16T20:03:11.671Z,1.50
2023-04-16T20:05:39.631Z,1.90
2023-04-16T20:08:07.703Z,1.70
2023-04-16T20:10:36.153Z,1.80
2023-04-16T20:13:05.128Z,2.00
2023-04-16T20:15:33.161Z,2.10
2023-04-16T20:18:01.285Z,1.90
2023-04-16T20:20:29.306Z,2.20
2023-04-16T20:22:58.471Z,1.80
2023-04-16T20:25:26.675Z,1.70
2023-04-16T20:27:54.637Z,1.60
2023-04-16T20:30:24.558Z,1.70
2023-04-16T20:32:52.447Z,1.60
2023-04-16T20:35:20.545Z,1.50
2023-04-16T20:37:48.723Z,1.40
2023-04-16T20:40:16.805Z,2.20
2023-04-16T20:42:47.711Z,2.20
2023-04-16T20:45:16.180Z,1.80
2023-04-16T20:47:44.369Z,2.30
2023-04-16T20:50:12.398Z,2.30
2023-04-16T20:52:40.293Z,2.20
2023-04-16T20:55:08.836Z,1.80
2023-04-16T20:57:36.946Z,1.80
2023-04-16T21:00:09.232Z,1.90
2023-04-16T21:02:37.419Z,1.70
2023-04-16T21:05:09.147Z,1.60
2023-04-16T21:07:37.020Z,2.10
2023-04-16T21:10:05.373Z,1.60
2023-04-16T21:12:33.197Z,1.90
2023-04-16T21:15:01.252Z,1.90
2023-04-16T21:17:29.338Z,2.10
2023-04-16T21:19:57.488Z,1.80
2023-04-16T21:22:25.541Z,1.80
2023-04-16T21:24:53.415Z,2.00
2023-04-16T21:27:21.347Z,1.80
2023-04-16T21:29:49.335Z,1.80
2023-04-16T21:32:17.317Z,1.70
2023-04-16T21:34:45.201Z,2.00
2023-04-16T21:37:13.103Z,2.00
2023-04-16T21:39:41.006Z,2.30
2023-04-16T21:42:08.964Z,1.90
2023-04-16T21:44:36.836Z,1.70
2023-04-16T21:47:05.073Z,2.60
2023-04-16T21:49:33.259Z,2.70
2023-04-16T21:52:02.556Z,2.70
2023-04-16T21:54:30.614Z,2.40
2023-04-16T21:56:58.788Z,2.50
2023-04-16T21:59:26.709Z,2.40
2023-04-16T22:01:54.774Z,2.90
2023-04-16T22:04:26.524Z,2.50
2023-04-16T22:06:56.403Z,3.00
2023-04-16T22:09:27.190Z,2.30
2023-04-16T22:11:57.853Z,2.50
2023-04-16T22:14:26.105Z,2.00
2023-04-16T22:16:54.161Z,1.90
2023-04-16T22:19:22.323Z,2.40
2023-04-16T22:21:50.375Z,2.40
2023-04-16T22:24:18.531Z,2.80
2023-04-16T22:26:46.625Z,3.00
2023-04-16T22:29:14.739Z,2.80
2023-04-16T22:31:42.548Z,2.70
2023-04-16T22:34:10.433Z,3.50
2023-04-16T22:36:38.240Z,2.60
2023-04-16T22:39:08.780Z,2.90
2023-04-16T22:41:37.621Z,3.10
2023-04-16T22:44:05.604Z,3.60
2023-04-16T22:46:33.621Z,3.50
2023-04-16T22:49:01.508Z,3.90
2023-04-16T22:51:30.714Z,3.30
2023-04-16T22:53:58.720Z,3.60
2023-04-16T22:56:28.975Z,3.50
2023-04-16T22:58:57.410Z,3.40
2023-04-16T23:01:25.407Z,3.20
2023-04-16T23:03:53.461Z,4.00
2023-04-16T23:06:22.055Z,4.60
2023-04-16T23:08:50.095Z,4.70
2023-04-16T23:11:18.044Z,4.80
2023-04-16T23:13:46.437Z,4.20
2023-04-16T23:16:14.297Z,3.90
2023-04-16T23:18:42.427Z,4.60
2023-04-16T23:21:10.657Z,4.50
2023-04-16T23:23:38.560Z,4.40
2023-04-16T23:26:06.587Z,3.90
2023-04-16T23:28:34.761Z,4.30
2023-04-16T23:31:04.222Z,4.00
2023-04-16T23:33:34.184Z,3.90
2023-04-16T23:36:02.177Z,3.40
2023-04-16T23:38:30.132Z,4.10
2023-04-16T23:40:57.945Z,3.30
2023-04-16T23:43:25.939Z,4.10
2023-04-16T23:45:53.936Z,3.70
2023-04-16T23:48:22.079Z,3.50
2023-04-16T23:50:50.064Z,3.40
2023-04-16T23:53:18.033Z,3.80
2023-04-16T23:55:46.204Z,2.90
2023-04-16T23:58:14.107Z,3.30
